Pagrindinis puslapis
METAR-TAF:

METAR-TAF

Oro uostai :

Bingöl, Turkija

platuma: 38-51-40N, ilguma: 40-35-33E, Aukštis: 1063 m

Dabartinis oras

Ataskaita buvo paskelbta 34 minutes, ne 09:50 UTC
Vėjas 3 kt nuo kintamojo kryptimis
Temperatūra 18°C
Drėgmė 20%
Slėgis 1022 hPa
Matomumas 10 km arba daugiau
nėra debesų žemiau 1500 m ir nėra kamuolinių lietaus debesų

METAR: LTCU 270950Z VRB03KT CAVOK 18/M05 Q1022

Laikas: 13:24 (10:24 UTC)

Prognozė

Ataskaita buvo paskelbta 2 valandos ir 44 minutes, ne 07:40 UTC
Prognozė galioja nuo 27 metu 09 UTC su 27 metu 18 UTC
Vėjas 8 kt iš Rytų/Šiaurės Rytų
Matomumas 10 km arba daugiau
nėra debesų žemiau 1500 m ir nėra kamuolinių lietaus debesų
Tapsmas
nuo 27 metu 09 UTC su 27 metu 12 UTC
Mažai debesys ne aukštis 3500 ft
Su prošvaistėmis ne aukštis 20000 ft
Tapsmas
nuo 27 metu 15 UTC su 27 metu 17 UTC
Matomumas 10 km arba daugiau
nėra debesų žemiau 1500 m ir nėra kamuolinių lietaus debesų

TAF: LTCU 270740Z 2709/2718 06008KT CAVOK BECMG 2709/2712 FEW035 BKN200 BECMG 2715/2717 CAVOK

Orai ataskaitas ir orų prognozės (METAR, TAF).

turimą stotys yra geltonos ir raudonos taškus žemėlapyje.

Perkelti pele per norėdami pamatyti stoties vardą.

Tada spustelėkite, norėdami matyti oro stebėjimo ir prognozės.

Norėdami pakeisti žemėlapį: spustelėkite ant žalios mygtukų su juodo kryžiaus žemyn,; žalią mygtuką su brūkšneliu, jei norite nutolinti; arba žalių rodyklių gretimoms žemėlapius.


METAR-TAF: